sensor_id;sensor_type;location;lat;lon;timestamp;temperature;humidity
30063;DHT22;16889;67.864;24.990;2024-03-08T00:02:53;-1.40;99.90
30063;DHT22;16889;67.864;24.990;2024-03-08T00:07:40;-1.40;99.90
30063;DHT22;16889;67.864;24.990;2024-03-08T00:12:26;-1.30;99.90
30063;DHT22;16889;67.864;24.990;2024-03-08T00:17:12;-1.30;99.90
30063;DHT22;16889;67.864;24.990;2024-03-08T00:21:58;-1.30;99.90
30063;DHT22;16889;67.864;24.990;2024-03-08T00:26:44;-1.20;99.90
30063;DHT22;16889;67.864;24.990;2024-03-08T00:31:30;-1.20;99.90
30063;DHT22;16889;67.864;24.990;2024-03-08T00:36:17;-1.20;99.90
30063;DHT22;16889;67.864;24.990;2024-03-08T00:41:03;-1.30;99.90
30063;DHT22;16889;67.864;24.990;2024-03-08T00:45:49;-1.20;99.90
30063;DHT22;16889;67.864;24.990;2024-03-08T00:50:35;-1.20;99.90
30063;DHT22;16889;67.864;24.990;2024-03-08T00:55:21;-1.20;99.90
30063;DHT22;16889;67.864;24.990;2024-03-08T01:00:08;-1.20;99.90
30063;DHT22;16889;67.864;24.990;2024-03-08T01:04:57;-1.20;99.90
30063;DHT22;16889;67.864;24.990;2024-03-08T01:09:43;-1.20;99.90
30063;DHT22;16889;67.864;24.990;2024-03-08T01:14:29;-1.20;99.90
30063;DHT22;16889;67.864;24.990;2024-03-08T01:19:16;-1.10;99.90
30063;DHT22;16889;67.864;24.990;2024-03-08T01:24:03;-1.00;99.90
30063;DHT22;16889;67.864;24.990;2024-03-08T01:28:50;-1.20;99.90
30063;DHT22;16889;67.864;24.990;2024-03-08T01:33:36;-1.00;99.90
30063;DHT22;16889;67.864;24.990;2024-03-08T01:38:22;-0.90;99.90
30063;DHT22;16889;67.864;24.990;2024-03-08T01:48:03;-0.90;99.90
30063;DHT22;16889;67.864;24.990;2024-03-08T01:52:49;-1.10;99.90
30063;DHT22;16889;67.864;24.990;2024-03-08T01:57:36;-1.20;99.90
30063;DHT22;16889;67.864;24.990;2024-03-08T02:02:23;-1.30;99.90
30063;DHT22;16889;67.864;24.990;2024-03-08T02:07:10;-1.30;99.90
30063;DHT22;16889;67.864;24.990;2024-03-08T02:11:57;-1.30;99.90
30063;DHT22;16889;67.864;24.990;2024-03-08T02:16:43;-1.20;99.90
30063;DHT22;16889;67.864;24.990;2024-03-08T02:21:30;-0.80;99.90
30063;DHT22;16889;67.864;24.990;2024-03-08T02:26:16;-1.00;99.90
30063;DHT22;16889;67.864;24.990;2024-03-08T02:31:02;-0.70;99.90
30063;DHT22;16889;67.864;24.990;2024-03-08T02:35:53;-1.00;99.90
30063;DHT22;16889;67.864;24.990;2024-03-08T02:40:39;-1.20;99.90
30063;DHT22;16889;67.864;24.990;2024-03-08T02:45:25;-1.20;99.90
30063;DHT22;16889;67.864;24.990;2024-03-08T02:50:11;-1.00;99.90
30063;DHT22;16889;67.864;24.990;2024-03-08T02:54:59;-1.10;99.90
30063;DHT22;16889;67.864;24.990;2024-03-08T02:59:45;-1.10;99.90
30063;DHT22;16889;67.864;24.990;2024-03-08T03:04:31;-1.00;99.90
30063;DHT22;16889;67.864;24.990;2024-03-08T03:09:18;-0.80;99.90
30063;DHT22;16889;67.864;24.990;2024-03-08T03:14:09;-1.00;99.90
30063;DHT22;16889;67.864;24.990;2024-03-08T03:18:55;-1.00;99.90
30063;DHT22;16889;67.864;24.990;2024-03-08T03:23:42;-1.20;99.90
30063;DHT22;16889;67.864;24.990;2024-03-08T03:28:28;-1.10;99.90
30063;DHT22;16889;67.864;24.990;2024-03-08T03:33:14;-1.20;99.90
30063;DHT22;16889;67.864;24.990;2024-03-08T03:38:02;-1.20;99.90
30063;DHT22;16889;67.864;24.990;2024-03-08T03:42:52;-1.10;99.90
30063;DHT22;16889;67.864;24.990;2024-03-08T03:47:38;-0.70;99.90
30063;DHT22;16889;67.864;24.990;2024-03-08T03:52:24;-0.70;99.90
30063;DHT22;16889;67.864;24.990;2024-03-08T03:57:10;-0.60;99.90
30063;DHT22;16889;67.864;24.990;2024-03-08T04:01:56;-0.60;99.90
30063;DHT22;16889;67.864;24.990;2024-03-08T04:06:42;-0.70;99.90
30063;DHT22;16889;67.864;24.990;2024-03-08T04:11:28;-0.80;99.90
30063;DHT22;16889;67.864;24.990;2024-03-08T04:16:14;-0.70;99.90
30063;DHT22;16889;67.864;24.990;2024-03-08T04:21:00;-0.50;99.90
30063;DHT22;16889;67.864;24.990;2024-03-08T04:25:48;-0.60;99.90
30063;DHT22;16889;67.864;24.990;2024-03-08T04:30:34;-0.50;99.90
30063;DHT22;16889;67.864;24.990;2024-03-08T04:35:22;-0.50;99.90
30063;DHT22;16889;67.864;24.990;2024-03-08T04:40:08;-0.60;99.90
30063;DHT22;16889;67.864;24.990;2024-03-08T04:44:54;-0.70;99.90
30063;DHT22;16889;67.864;24.990;2024-03-08T04:49:40;-0.80;99.90
30063;DHT22;16889;67.864;24.990;2024-03-08T04:54:26;-0.80;99.90
30063;DHT22;16889;67.864;24.990;2024-03-08T04:59:12;-1.00;99.90
30063;DHT22;16889;67.864;24.990;2024-03-08T05:03:59;-1.10;99.90
30063;DHT22;16889;67.864;24.990;2024-03-08T05:08:45;-1.10;99.90
30063;DHT22;16889;67.864;24.990;2024-03-08T05:13:32;-1.20;99.90
30063;DHT22;16889;67.864;24.990;2024-03-08T05:18:18;-1.20;99.90
30063;DHT22;16889;67.864;24.990;2024-03-08T05:23:04;-1.20;99.90
30063;DHT22;16889;67.864;24.990;2024-03-08T05:27:51;-1.50;99.90
30063;DHT22;16889;67.864;24.990;2024-03-08T05:32:36;-1.30;99.90
30063;DHT22;16889;67.864;24.990;2024-03-08T05:37:22;-1.30;99.90
30063;DHT22;16889;67.864;24.990;2024-03-08T05:42:08;-1.20;99.90
30063;DHT22;16889;67.864;24.990;2024-03-08T05:46:55;-1.20;99.90
30063;DHT22;16889;67.864;24.990;2024-03-08T05:51:41;-1.20;99.90
30063;DHT22;16889;67.864;24.990;2024-03-08T05:56:27;-1.30;99.90
30063;DHT22;16889;67.864;24.990;2024-03-08T06:01:15;-1.20;99.90
30063;DHT22;16889;67.864;24.990;2024-03-08T06:06:01;-1.10;99.90
30063;DHT22;16889;67.864;24.990;2024-03-08T06:10:48;-1.10;99.90
30063;DHT22;16889;67.864;24.990;2024-03-08T06:15:38;-1.00;99.90
30063;DHT22;16889;67.864;24.990;2024-03-08T06:20:24;-1.10;99.90
30063;DHT22;16889;67.864;24.990;2024-03-08T06:25:12;-1.00;99.90
30063;DHT22;16889;67.864;24.990;2024-03-08T06:30:01;-0.90;99.90
30063;DHT22;16889;67.864;24.990;2024-03-08T06:34:48;-0.80;99.90
30063;DHT22;16889;67.864;24.990;2024-03-08T06:39:35;-0.60;99.90
30063;DHT22;16889;67.864;24.990;2024-03-08T06:44:21;-0.40;99.90
30063;DHT22;16889;67.864;24.990;2024-03-08T06:49:07;-0.30;99.90
30063;DHT22;16889;67.864;24.990;2024-03-08T06:53:54;-0.40;99.90
30063;DHT22;16889;67.864;24.990;2024-03-08T06:58:40;-0.70;99.90
30063;DHT22;16889;67.864;24.990;2024-03-08T07:03:26;-0.50;99.90
30063;DHT22;16889;67.864;24.990;2024-03-08T07:08:14;-0.40;99.90
30063;DHT22;16889;67.864;24.990;2024-03-08T07:13:01;-0.30;99.90
30063;DHT22;16889;67.864;24.990;2024-03-08T07:17:50;-0.20;99.90
30063;DHT22;16889;67.864;24.990;2024-03-08T07:22:38;-0.40;99.90
30063;DHT22;16889;67.864;24.990;2024-03-08T07:27:24;-0.30;99.90
30063;DHT22;16889;67.864;24.990;2024-03-08T07:32:10;-0.50;99.90
30063;DHT22;16889;67.864;24.990;2024-03-08T07:37:09;-0.40;99.90
30063;DHT22;16889;67.864;24.990;2024-03-08T07:41:56;0.00;99.90
30063;DHT22;16889;67.864;24.990;2024-03-08T07:46:42;0.40;99.90
30063;DHT22;16889;67.864;24.990;2024-03-08T07:51:28;0.70;99.90
30063;DHT22;16889;67.864;24.990;2024-03-08T07:56:14;0.80;99.90
30063;DHT22;16889;67.864;24.990;2024-03-08T08:01:02;1.00;99.90
30063;DHT22;16889;67.864;24.990;2024-03-08T08:05:48;1.10;99.90
30063;DHT22;16889;67.864;24.990;2024-03-08T08:10:34;1.20;99.90
30063;DHT22;16889;67.864;24.990;2024-03-08T08:15:20;1.40;99.90
30063;DHT22;16889;67.864;24.990;2024-03-08T08:20:07;1.20;99.90
30063;DHT22;16889;67.864;24.990;2024-03-08T08:24:53;1.00;99.90
30063;DHT22;16889;67.864;24.990;2024-03-08T08:29:39;1.30;99.90
30063;DHT22;16889;67.864;24.990;2024-03-08T08:34:25;1.30;99.90
30063;DHT22;16889;67.864;24.990;2024-03-08T08:39:12;1.40;99.90
30063;DHT22;16889;67.864;24.990;2024-03-08T08:43:59;1.50;99.90
30063;DHT22;16889;67.864;24.990;2024-03-08T08:48:45;1.00;99.90
30063;DHT22;16889;67.864;24.990;2024-03-08T08:53:32;0.90;99.90
30063;DHT22;16889;67.864;24.990;2024-03-08T08:58:18;1.00;99.90
30063;DHT22;16889;67.864;24.990;2024-03-08T09:03:04;1.30;99.90
30063;DHT22;16889;67.864;24.990;2024-03-08T09:07:52;1.40;99.90
30063;DHT22;16889;67.864;24.990;2024-03-08T09:12:39;1.40;99.90
30063;DHT22;16889;67.864;24.990;2024-03-08T09:17:25;1.30;99.90
30063;DHT22;16889;67.864;24.990;2024-03-08T09:22:11;1.50;99.90
30063;DHT22;16889;67.864;24.990;2024-03-08T09:26:57;1.80;99.90
30063;DHT22;16889;67.864;24.990;2024-03-08T09:31:44;2.00;99.90
30063;DHT22;16889;67.864;24.990;2024-03-08T09:36:31;2.30;99.90
30063;DHT22;16889;67.864;24.990;2024-03-08T09:41:18;2.40;99.90
30063;DHT22;16889;67.864;24.990;2024-03-08T09:46:04;2.20;99.90
30063;DHT22;16889;67.864;24.990;2024-03-08T09:50:54;2.30;99.90
30063;DHT22;16889;67.864;24.990;2024-03-08T09:55:41;2.00;99.90
30063;DHT22;16889;67.864;24.990;2024-03-08T10:00:30;2.00;99.90
30063;DHT22;16889;67.864;24.990;2024-03-08T10:05:17;2.10;99.90
30063;DHT22;16889;67.864;24.990;2024-03-08T10:10:04;1.90;99.90
30063;DHT22;16889;67.864;24.990;2024-03-08T10:14:50;2.00;99.90
30063;DHT22;16889;67.864;24.990;2024-03-08T10:19:36;1.90;99.90
30063;DHT22;16889;67.864;24.990;2024-03-08T10:24:25;1.40;99.90
30063;DHT22;16889;67.864;24.990;2024-03-08T10:29:13;1.40;99.90
30063;DHT22;16889;67.864;24.990;2024-03-08T10:34:01;1.30;99.90
30063;DHT22;16889;67.864;24.990;2024-03-08T10:38:51;1.40;99.90
30063;DHT22;16889;67.864;24.990;2024-03-08T10:48:55;1.80;99.90
30063;DHT22;16889;67.864;24.990;2024-03-08T10:53:45;1.60;99.90
30063;DHT22;16889;67.864;24.990;2024-03-08T10:58:32;1.70;99.90
30063;DHT22;16889;67.864;24.990;2024-03-08T11:08:31;2.00;99.90
30063;DHT22;16889;67.864;24.990;2024-03-08T11:13:35;1.50;99.90
30063;DHT22;16889;67.864;24.990;2024-03-08T11:18:21;1.20;99.90
30063;DHT22;16889;67.864;24.990;2024-03-08T11:23:08;1.10;99.90
30063;DHT22;16889;67.864;24.990;2024-03-08T11:28:08;1.10;99.90
30063;DHT22;16889;67.864;24.990;2024-03-08T11:32:54;1.50;99.90
30063;DHT22;16889;67.864;24.990;2024-03-08T11:37:40;1.60;99.90
30063;DHT22;16889;67.864;24.990;2024-03-08T11:42:26;1.40;99.90
30063;DHT22;16889;67.864;24.990;2024-03-08T11:47:13;1.40;99.90
30063;DHT22;16889;67.864;24.990;2024-03-08T11:52:00;1.60;99.90
30063;DHT22;16889;67.864;24.990;2024-03-08T11:56:46;1.70;99.90
30063;DHT22;16889;67.864;24.990;2024-03-08T12:01:35;1.10;99.90
30063;DHT22;16889;67.864;24.990;2024-03-08T12:06:21;0.70;99.90
30063;DHT22;16889;67.864;24.990;2024-03-08T12:11:07;0.80;99.90
30063;DHT22;16889;67.864;24.990;2024-03-08T12:15:58;0.90;99.90
30063;DHT22;16889;67.864;24.990;2024-03-08T12:20:45;1.40;99.90
30063;DHT22;16889;67.864;24.990;2024-03-08T12:25:35;1.40;99.90
30063;DHT22;16889;67.864;24.990;2024-03-08T12:30:25;1.00;99.90
30063;DHT22;16889;67.864;24.990;2024-03-08T12:35:14;1.40;99.90
30063;DHT22;16889;67.864;24.990;2024-03-08T12:40:00;1.40;99.90
30063;DHT22;16889;67.864;24.990;2024-03-08T12:44:46;1.30;99.90
30063;DHT22;16889;67.864;24.990;2024-03-08T12:49:32;1.50;99.90
30063;DHT22;16889;67.864;24.990;2024-03-08T12:54:18;1.60;99.90
30063;DHT22;16889;67.864;24.990;2024-03-08T12:59:09;1.60;99.90
30063;DHT22;16889;67.864;24.990;2024-03-08T13:03:55;1.70;99.90
30063;DHT22;16889;67.864;24.990;2024-03-08T13:08:41;1.60;99.90
30063;DHT22;16889;67.864;24.990;2024-03-08T13:13:29;1.60;99.90
30063;DHT22;16889;67.864;24.990;2024-03-08T13:18:15;1.70;99.90
30063;DHT22;16889;67.864;24.990;2024-03-08T13:23:01;1.80;99.90
30063;DHT22;16889;67.864;24.990;2024-03-08T13:27:47;2.00;99.90
30063;DHT22;16889;67.864;24.990;2024-03-08T13:32:34;2.10;99.90
30063;DHT22;16889;67.864;24.990;2024-03-08T13:37:20;1.90;99.90
30063;DHT22;16889;67.864;24.990;2024-03-08T13:42:07;1.90;99.90
30063;DHT22;16889;67.864;24.990;2024-03-08T13:46:58;2.10;99.90
30063;DHT22;16889;67.864;24.990;2024-03-08T13:51:44;2.00;99.90
30063;DHT22;16889;67.864;24.990;2024-03-08T13:56:31;2.00;99.90
30063;DHT22;16889;67.864;24.990;2024-03-08T14:01:17;1.70;99.90
30063;DHT22;16889;67.864;24.990;2024-03-08T14:06:03;1.50;99.90
30063;DHT22;16889;67.864;24.990;2024-03-08T14:10:49;1.70;99.90
30063;DHT22;16889;67.864;24.990;2024-03-08T14:15:36;1.40;99.90
30063;DHT22;16889;67.864;24.990;2024-03-08T14:20:27;1.50;99.90
30063;DHT22;16889;67.864;24.990;2024-03-08T14:25:13;1.30;99.90
30063;DHT22;16889;67.864;24.990;2024-03-08T14:30:02;1.30;99.90
30063;DHT22;16889;67.864;24.990;2024-03-08T14:34:48;1.30;99.90
30063;DHT22;16889;67.864;24.990;2024-03-08T14:39:34;1.30;99.90
30063;DHT22;16889;67.864;24.990;2024-03-08T14:44:22;1.30;99.90
30063;DHT22;16889;67.864;24.990;2024-03-08T14:49:17;1.30;99.90
30063;DHT22;16889;67.864;24.990;2024-03-08T14:54:05;1.20;99.90
30063;DHT22;16889;67.864;24.990;2024-03-08T14:58:52;0.90;99.90
30063;DHT22;16889;67.864;24.990;2024-03-08T15:03:38;0.70;99.90
30063;DHT22;16889;67.864;24.990;2024-03-08T15:08:24;0.70;99.90
30063;DHT22;16889;67.864;24.990;2024-03-08T15:13:11;0.80;99.90
30063;DHT22;16889;67.864;24.990;2024-03-08T15:18:08;0.70;99.90
30063;DHT22;16889;67.864;24.990;2024-03-08T15:22:55;0.60;99.90
30063;DHT22;16889;67.864;24.990;2024-03-08T15:27:44;0.50;99.90
30063;DHT22;16889;67.864;24.990;2024-03-08T15:32:30;0.40;99.90
30063;DHT22;16889;67.864;24.990;2024-03-08T15:37:18;0.30;99.90
30063;DHT22;16889;67.864;24.990;2024-03-08T15:42:04;0.30;99.90
30063;DHT22;16889;67.864;24.990;2024-03-08T15:46:51;0.20;99.90
30063;DHT22;16889;67.864;24.990;2024-03-08T15:51:37;0.20;99.90
30063;DHT22;16889;67.864;24.990;2024-03-08T15:56:23;0.20;99.90
30063;DHT22;16889;67.864;24.990;2024-03-08T16:01:09;0.20;99.90
30063;DHT22;16889;67.864;24.990;2024-03-08T16:05:57;0.20;99.90
30063;DHT22;16889;67.864;24.990;2024-03-08T16:10:44;0.20;99.90
30063;DHT22;16889;67.864;24.990;2024-03-08T16:15:39;0.10;99.90
30063;DHT22;16889;67.864;24.990;2024-03-08T16:20:26;0.10;99.90
30063;DHT22;16889;67.864;24.990;2024-03-08T16:25:12;0.10;99.90
30063;DHT22;16889;67.864;24.990;2024-03-08T16:29:58;-0.10;99.90
30063;DHT22;16889;67.864;24.990;2024-03-08T16:34:44;-0.20;99.90
30063;DHT22;16889;67.864;24.990;2024-03-08T16:39:30;-0.30;99.90
30063;DHT22;16889;67.864;24.990;2024-03-08T16:44:16;-0.50;99.90
30063;DHT22;16889;67.864;24.990;2024-03-08T16:49:05;-0.50;99.90
30063;DHT22;16889;67.864;24.990;2024-03-08T16:53:51;-0.40;99.90
30063;DHT22;16889;67.864;24.990;2024-03-08T16:58:38;-0.40;99.90
30063;DHT22;16889;67.864;24.990;2024-03-08T17:03:27;-0.40;99.90
30063;DHT22;16889;67.864;24.990;2024-03-08T17:08:13;-0.40;99.90
30063;DHT22;16889;67.864;24.990;2024-03-08T17:13:01;-0.40;99.90
30063;DHT22;16889;67.864;24.990;2024-03-08T17:17:48;-0.40;99.90
30063;DHT22;16889;67.864;24.990;2024-03-08T17:22:35;-0.40;99.90
30063;DHT22;16889;67.864;24.990;2024-03-08T17:27:21;-0.40;99.90
30063;DHT22;16889;67.864;24.990;2024-03-08T17:32:10;-0.40;99.90
30063;DHT22;16889;67.864;24.990;2024-03-08T17:36:56;-0.40;99.90
30063;DHT22;16889;67.864;24.990;2024-03-08T17:41:44;-0.40;99.90
30063;DHT22;16889;67.864;24.990;2024-03-08T17:46:33;-0.40;99.90
30063;DHT22;16889;67.864;24.990;2024-03-08T17:51:19;-0.50;99.90
30063;DHT22;16889;67.864;24.990;2024-03-08T17:56:06;-0.60;99.90
30063;DHT22;16889;67.864;24.990;2024-03-08T18:00:52;-0.80;99.90
30063;DHT22;16889;67.864;24.990;2024-03-08T18:05:39;-0.70;99.90
30063;DHT22;16889;67.864;24.990;2024-03-08T18:10:28;-0.70;99.90
30063;DHT22;16889;67.864;24.990;2024-03-08T18:15:15;-0.70;99.90
30063;DHT22;16889;67.864;24.990;2024-03-08T18:20:10;-0.70;99.90
30063;DHT22;16889;67.864;24.990;2024-03-08T18:25:00;-0.60;99.90
30063;DHT22;16889;67.864;24.990;2024-03-08T18:29:45;-0.60;99.90
30063;DHT22;16889;67.864;24.990;2024-03-08T18:34:31;-0.70;99.90
30063;DHT22;16889;67.864;24.990;2024-03-08T18:39:17;-0.80;99.90
30063;DHT22;16889;67.864;24.990;2024-03-08T18:44:04;-0.80;99.90
30063;DHT22;16889;67.864;24.990;2024-03-08T18:48:50;-0.80;99.90
30063;DHT22;16889;67.864;24.990;2024-03-08T18:53:36;-0.90;99.90
30063;DHT22;16889;67.864;24.990;2024-03-08T18:58:27;-0.90;99.90
30063;DHT22;16889;67.864;24.990;2024-03-08T19:03:16;-0.80;99.90
30063;DHT22;16889;67.864;24.990;2024-03-08T19:08:03;-0.70;99.90
30063;DHT22;16889;67.864;24.990;2024-03-08T19:12:54;-0.80;99.90
30063;DHT22;16889;67.864;24.990;2024-03-08T19:17:52;-0.70;99.90
30063;DHT22;16889;67.864;24.990;2024-03-08T19:22:39;-0.60;99.90
30063;DHT22;16889;67.864;24.990;2024-03-08T19:27:26;-0.60;99.90
30063;DHT22;16889;67.864;24.990;2024-03-08T19:32:12;-0.60;99.90
30063;DHT22;16889;67.864;24.990;2024-03-08T19:36:58;-0.70;99.90
30063;DHT22;16889;67.864;24.990;2024-03-08T19:41:44;-0.70;99.90
30063;DHT22;16889;67.864;24.990;2024-03-08T19:46:30;-0.70;99.90
30063;DHT22;16889;67.864;24.990;2024-03-08T19:51:23;-0.80;99.90
30063;DHT22;16889;67.864;24.990;2024-03-08T19:56:09;-0.80;99.90
30063;DHT22;16889;67.864;24.990;2024-03-08T20:00:55;-0.90;99.90
30063;DHT22;16889;67.864;24.990;2024-03-08T20:05:41;-0.80;99.90
30063;DHT22;16889;67.864;24.990;2024-03-08T20:10:30;-0.80;99.90
30063;DHT22;16889;67.864;24.990;2024-03-08T20:15:17;-0.80;99.90
30063;DHT22;16889;67.864;24.990;2024-03-08T20:20:08;-0.80;99.90
30063;DHT22;16889;67.864;24.990;2024-03-08T20:25:00;-0.70;99.90
30063;DHT22;16889;67.864;24.990;2024-03-08T20:29:46;-0.70;99.90
30063;DHT22;16889;67.864;24.990;2024-03-08T20:34:32;-0.70;99.90
30063;DHT22;16889;67.864;24.990;2024-03-08T20:39:19;-0.60;99.90
30063;DHT22;16889;67.864;24.990;2024-03-08T20:44:06;-0.60;99.90
30063;DHT22;16889;67.864;24.990;2024-03-08T20:48:53;-0.60;99.90
30063;DHT22;16889;67.864;24.990;2024-03-08T20:53:39;-0.60;99.90
30063;DHT22;16889;67.864;24.990;2024-03-08T20:58:28;-0.60;99.90
30063;DHT22;16889;67.864;24.990;2024-03-08T21:03:15;-0.60;99.90
30063;DHT22;16889;67.864;24.990;2024-03-08T21:08:04;-0.60;99.90
30063;DHT22;16889;67.864;24.990;2024-03-08T21:12:53;-0.70;99.90
30063;DHT22;16889;67.864;24.990;2024-03-08T21:17:40;-0.70;99.90
30063;DHT22;16889;67.864;24.990;2024-03-08T21:22:27;-0.80;99.90
30063;DHT22;16889;67.864;24.990;2024-03-08T21:27:13;-0.70;99.90
30063;DHT22;16889;67.864;24.990;2024-03-08T21:32:00;-0.90;99.90
30063;DHT22;16889;67.864;24.990;2024-03-08T21:36:52;-0.90;99.90
30063;DHT22;16889;67.864;24.990;2024-03-08T21:41:38;-0.80;99.90
30063;DHT22;16889;67.864;24.990;2024-03-08T21:46:25;-0.80;99.90
30063;DHT22;16889;67.864;24.990;2024-03-08T21:51:11;-0.80;99.90
30063;DHT22;16889;67.864;24.990;2024-03-08T21:55:59;-0.80;99.90
30063;DHT22;16889;67.864;24.990;2024-03-08T22:00:44;-0.80;99.90
30063;DHT22;16889;67.864;24.990;2024-03-08T22:05:32;-0.80;99.90
30063;DHT22;16889;67.864;24.990;2024-03-08T22:10:19;-0.90;99.90
30063;DHT22;16889;67.864;24.990;2024-03-08T22:15:07;-0.90;99.90
30063;DHT22;16889;67.864;24.990;2024-03-08T22:19:54;-0.90;99.90
30063;DHT22;16889;67.864;24.990;2024-03-08T22:24:40;-0.90;99.90
30063;DHT22;16889;67.864;24.990;2024-03-08T22:29:26;-0.90;99.90
30063;DHT22;16889;67.864;24.990;2024-03-08T22:34:12;-0.90;99.90
30063;DHT22;16889;67.864;24.990;2024-03-08T22:38:58;-0.90;99.90
30063;DHT22;16889;67.864;24.990;2024-03-08T22:43:44;-0.90;99.90
30063;DHT22;16889;67.864;24.990;2024-03-08T22:48:31;-0.90;99.90
30063;DHT22;16889;67.864;24.990;2024-03-08T22:53:17;-1.10;99.90
30063;DHT22;16889;67.864;24.990;2024-03-08T22:58:03;-1.10;99.90
30063;DHT22;16889;67.864;24.990;2024-03-08T23:02:50;-1.20;99.90
30063;DHT22;16889;67.864;24.990;2024-03-08T23:07:36;-1.20;99.90
30063;DHT22;16889;67.864;24.990;2024-03-08T23:12:24;-1.30;99.90
30063;DHT22;16889;67.864;24.990;2024-03-08T23:17:11;-1.20;99.90
30063;DHT22;16889;67.864;24.990;2024-03-08T23:21:59;-1.30;99.90
30063;DHT22;16889;67.864;24.990;2024-03-08T23:26:46;-1.20;99.90
30063;DHT22;16889;67.864;24.990;2024-03-08T23:31:32;-1.20;99.90
30063;DHT22;16889;67.864;24.990;2024-03-08T23:36:20;-1.20;99.90
30063;DHT22;16889;67.864;24.990;2024-03-08T23:41:06;-1.20;99.90
30063;DHT22;16889;67.864;24.990;2024-03-08T23:45:52;-1.40;99.90
30063;DHT22;16889;67.864;24.990;2024-03-08T23:50:38;-1.40;99.90
30063;DHT22;16889;67.864;24.990;2024-03-08T23:55:24;-1.40;99.90
